createdAt,value
2023-02-23T00:02:05.665Z,27.63
2023-02-23T00:04:33.944Z,27.42
2023-02-23T00:07:00.824Z,26.55
2023-02-23T00:09:35.022Z,28.10
2023-02-23T00:12:08.119Z,30.42
2023-02-23T00:14:40.532Z,28.13
2023-02-23T00:17:14.399Z,28.77
2023-02-23T00:19:43.468Z,28.33
2023-02-23T00:22:10.667Z,29.10
2023-02-23T00:24:38.743Z,29.65
2023-02-23T00:27:06.519Z,27.75
2023-02-23T00:29:39.420Z,29.90
2023-02-23T00:32:06.477Z,29.00
2023-02-23T00:34:36.510Z,31.42
2023-02-23T00:37:04.421Z,31.25
2023-02-23T00:39:31.399Z,31.50
2023-02-23T00:42:03.429Z,30.98
2023-02-23T00:44:32.504Z,32.08
2023-02-23T00:47:03.162Z,31.55
2023-02-23T00:49:30.072Z,32.28
2023-02-23T00:51:56.953Z,30.98
2023-02-23T00:54:23.911Z,32.35
2023-02-23T00:56:51.684Z,30.52
2023-02-23T00:59:19.688Z,32.15
2023-02-23T01:01:47.650Z,30.85
2023-02-23T01:04:14.625Z,31.50
2023-02-23T01:06:42.520Z,31.25
2023-02-23T01:09:14.155Z,32.10
2023-02-23T01:11:41.546Z,32.42
2023-02-23T01:14:10.441Z,31.60
2023-02-23T01:16:38.801Z,31.90
2023-02-23T01:19:06.640Z,32.92
2023-02-23T01:21:41.918Z,30.88
2023-02-23T01:24:10.362Z,31.52
2023-02-23T01:26:42.375Z,31.80
2023-02-23T01:29:14.720Z,32.05
2023-02-23T01:31:46.268Z,33.33
2023-02-23T01:34:18.794Z,31.70
2023-02-23T01:36:45.945Z,32.05
2023-02-23T01:39:17.600Z,31.92
2023-02-23T01:41:45.747Z,31.95
2023-02-23T01:44:12.594Z,31.92
2023-02-23T01:46:46.334Z,32.20
2023-02-23T01:49:28.027Z,32.55
2023-02-23T01:52:07.300Z,32.85
2023-02-23T01:54:39.988Z,31.65
2023-02-23T01:57:12.997Z,31.10
2023-02-23T01:59:44.685Z,32.30
2023-02-23T02:02:13.247Z,32.03
2023-02-23T02:04:46.486Z,32.35
2023-02-23T02:07:25.691Z,31.50
2023-02-23T02:10:11.655Z,31.70
2023-02-23T02:12:41.037Z,33.30
2023-02-23T02:15:17.071Z,32.78
2023-02-23T02:17:45.164Z,32.08
2023-02-23T02:20:42.931Z,33.50
2023-02-23T02:23:45.192Z,32.53
2023-02-23T02:26:53.598Z,30.98
2023-02-23T02:29:59.511Z,33.28
2023-02-23T02:33:03.999Z,32.63
2023-02-23T02:36:18.313Z,32.22
2023-02-23T02:39:23.298Z,32.92
2023-02-23T02:42:22.813Z,32.78
2023-02-23T02:44:52.634Z,33.70
2023-02-23T02:47:34.107Z,32.33
2023-02-23T02:50:12.407Z,32.88
2023-02-23T02:52:49.930Z,32.60
2023-02-23T02:55:35.202Z,34.67
2023-02-23T03:01:03.631Z,33.17
2023-02-23T03:04:05.051Z,32.50
2023-02-23T03:06:56.543Z,33.28
2023-02-23T03:10:10.432Z,32.03
2023-02-23T03:13:25.313Z,32.13
2023-02-23T03:16:52.786Z,32.92
2023-02-23T03:20:09.018Z,32.80
2023-02-23T03:23:12.434Z,31.33
2023-02-23T03:26:13.341Z,33.17
2023-02-23T03:29:29.942Z,33.55
2023-02-23T03:32:48.814Z,33.28
2023-02-23T03:36:16.032Z,32.72
2023-02-23T03:39:46.194Z,32.50
2023-02-23T03:42:43.324Z,32.42
2023-02-23T03:45:36.629Z,34.03
2023-02-23T03:48:28.481Z,33.40
2023-02-23T03:51:22.221Z,34.63
2023-02-23T03:54:30.898Z,34.58
2023-02-23T03:57:21.911Z,34.38
2023-02-23T04:00:16.584Z,33.58
2023-02-23T04:03:08.472Z,34.65
2023-02-23T04:05:58.526Z,33.50
2023-02-23T04:08:58.068Z,33.47
2023-02-23T04:12:08.255Z,33.67
2023-02-23T04:14:56.436Z,34.53
2023-02-23T04:17:29.973Z,33.95
2023-02-23T04:19:58.076Z,35.22
2023-02-23T04:22:26.000Z,34.53
2023-02-23T04:24:58.816Z,33.92
2023-02-23T04:27:26.198Z,35.03
2023-02-23T04:29:55.840Z,33.88
2023-02-23T04:32:23.395Z,32.20
2023-02-23T04:34:50.957Z,33.38
2023-02-23T04:37:19.055Z,32.08
2023-02-23T04:39:49.734Z,34.97
2023-02-23T04:42:18.682Z,34.35
2023-02-23T04:44:46.469Z,32.97
2023-02-23T04:47:16.821Z,33.35
2023-02-23T04:49:44.934Z,32.13
2023-02-23T04:52:12.707Z,32.97
2023-02-23T04:54:42.769Z,33.05
2023-02-23T04:57:12.550Z,33.58
2023-02-23T04:59:40.473Z,33.35
2023-02-23T05:02:09.993Z,33.40
2023-02-23T05:04:40.641Z,32.35
2023-02-23T05:07:20.182Z,33.47
2023-02-23T05:09:50.523Z,32.20
2023-02-23T05:12:24.615Z,35.67
2023-02-23T05:14:53.058Z,34.17
2023-02-23T05:17:23.916Z,45.08
2023-02-23T05:19:56.883Z,37.83
2023-02-23T05:22:32.633Z,35.72
2023-02-23T05:25:16.588Z,36.17
2023-02-23T05:27:52.536Z,32.30
2023-02-23T05:30:23.122Z,32.58
2023-02-23T05:32:59.380Z,30.05
2023-02-23T05:35:30.505Z,32.15
2023-02-23T05:38:04.034Z,31.75
2023-02-23T05:44:39.905Z,31.58
2023-02-23T05:47:31.081Z,32.80
2023-02-23T05:57:40.166Z,31.63
2023-02-23T06:03:21.743Z,35.30
2023-02-23T06:42:56.635Z,35.75
2023-02-23T06:45:27.400Z,36.97
2023-02-23T06:48:06.216Z,37.78
2023-02-23T06:50:33.476Z,37.25
2023-02-23T06:53:24.864Z,36.97
2023-02-23T07:22:22.506Z,33.97
2023-02-23T07:24:49.554Z,37.72
2023-02-23T07:27:16.752Z,35.13
2023-02-23T07:29:43.853Z,35.58
2023-02-23T07:32:58.276Z,34.28
2023-02-23T07:35:25.423Z,34.63
2023-02-23T07:37:52.978Z,35.75
2023-02-23T07:40:20.703Z,34.55
2023-02-23T07:42:47.980Z,35.85
2023-02-23T07:45:17.143Z,35.25
2023-02-23T07:47:44.659Z,35.97
2023-02-23T07:50:12.619Z,34.60
2023-02-23T07:52:43.100Z,35.97
2023-02-23T07:55:11.703Z,36.28
2023-02-23T07:57:39.544Z,34.85
2023-02-23T08:00:07.681Z,35.53
2023-02-23T08:02:40.812Z,32.75
2023-02-23T08:05:08.176Z,34.95
2023-02-23T08:07:35.322Z,33.97
2023-02-23T08:10:02.507Z,33.47
2023-02-23T08:12:29.485Z,33.20
2023-02-23T08:14:59.400Z,31.77
2023-02-23T08:17:27.517Z,33.08
2023-02-23T08:19:54.392Z,32.75
2023-02-23T08:22:21.489Z,31.05
2023-02-23T08:24:48.982Z,29.02
2023-02-23T08:27:15.989Z,35.22
2023-02-23T08:29:43.031Z,32.33
2023-02-23T08:32:10.131Z,28.50
2023-02-23T08:34:43.742Z,28.63
2023-02-23T08:37:11.471Z,29.98
2023-02-23T08:39:38.937Z,30.00
2023-02-23T08:42:06.521Z,29.75
2023-02-23T08:44:33.607Z,28.20
2023-02-23T08:47:01.243Z,30.63
2023-02-23T08:49:28.177Z,28.80
2023-02-23T08:51:55.306Z,29.67
2023-02-23T08:54:22.412Z,28.73
2023-02-23T08:56:49.732Z,28.50
2023-02-23T08:59:17.581Z,28.65
2023-02-23T09:01:46.316Z,28.17
2023-02-23T09:04:14.570Z,27.35
2023-02-23T09:06:42.912Z,27.17
2023-02-23T09:09:11.147Z,26.38
2023-02-23T09:11:39.465Z,27.20
2023-02-23T09:14:09.502Z,26.00
2023-02-23T09:16:42.964Z,26.13
2023-02-23T09:19:17.491Z,26.15
2023-02-23T09:21:52.676Z,26.75
2023-02-23T09:26:57.787Z,22.58
2023-02-23T09:29:32.576Z,23.40
2023-02-23T09:32:01.560Z,23.30
2023-02-23T09:34:32.577Z,24.50
2023-02-23T09:37:13.248Z,22.42
2023-02-23T09:39:43.692Z,21.63
2023-02-23T09:45:42.608Z,21.35
2023-02-23T09:52:35.631Z,21.35
2023-02-23T09:55:42.217Z,22.13
2023-02-23T09:58:37.066Z,22.00
2023-02-23T10:05:14.674Z,22.50
2023-02-23T10:08:19.487Z,22.00
2023-02-23T10:11:41.449Z,20.85
2023-02-23T10:15:06.987Z,21.42
2023-02-23T10:18:20.594Z,23.92
2023-02-23T10:22:12.717Z,23.70
2023-02-23T10:25:28.118Z,22.08
2023-02-23T10:28:04.891Z,24.85
2023-02-23T10:30:34.750Z,24.98
2023-02-23T10:33:39.625Z,24.65
2023-02-23T10:36:24.227Z,25.92
2023-02-23T10:39:26.660Z,24.30
2023-02-23T10:42:18.696Z,23.65
2023-02-23T10:45:25.797Z,20.58
2023-02-23T10:48:20.859Z,22.30
2023-02-23T10:51:09.262Z,22.05
2023-02-23T10:53:45.921Z,20.33
2023-02-23T10:56:21.278Z,19.90
2023-02-23T10:59:04.231Z,19.90
2023-02-23T11:02:01.088Z,17.75
2023-02-23T11:04:35.268Z,19.45
2023-02-23T11:07:16.439Z,17.52
2023-02-23T11:09:47.727Z,18.50
2023-02-23T11:12:43.151Z,19.23
2023-02-23T11:15:38.903Z,17.98
2023-02-23T11:18:22.807Z,18.60
2023-02-23T11:20:51.071Z,19.90
2023-02-23T11:23:22.377Z,19.33
2023-02-23T11:25:56.938Z,19.75
2023-02-23T11:28:44.106Z,19.58
2023-02-23T11:31:20.655Z,18.65
2023-02-23T11:33:50.022Z,19.27
2023-02-23T11:36:31.386Z,18.85
2023-02-23T11:39:24.467Z,19.67
2023-02-23T11:42:15.274Z,17.35
2023-02-23T11:44:42.290Z,17.70
2023-02-23T11:47:22.715Z,17.60
2023-02-23T11:49:51.807Z,17.52
2023-02-23T11:52:24.066Z,18.00
2023-02-23T11:55:07.848Z,18.20
2023-02-23T11:57:36.309Z,18.23
2023-02-23T12:00:25.354Z,19.35
2023-02-23T12:02:59.917Z,17.10
2023-02-23T12:05:30.152Z,19.20
2023-02-23T12:08:10.561Z,18.52
2023-02-23T12:10:57.222Z,19.20
2023-02-23T12:13:38.707Z,19.60
2023-02-23T12:16:28.056Z,18.58
2023-02-23T12:19:06.624Z,18.08
2023-02-23T12:21:43.208Z,17.95
2023-02-23T12:24:43.760Z,17.13
2023-02-23T12:27:35.590Z,17.42
2023-02-23T12:30:17.514Z,15.70
2023-02-23T12:33:02.149Z,15.13
2023-02-23T12:35:36.877Z,21.92
2023-02-23T12:38:48.756Z,15.82
2023-02-23T12:41:26.492Z,15.68
2023-02-23T12:44:07.436Z,14.82
2023-02-23T12:46:51.202Z,14.10
2023-02-23T12:49:49.199Z,19.52
2023-02-23T12:52:38.887Z,12.18
2023-02-23T12:55:12.482Z,13.07
2023-02-23T12:57:55.596Z,12.75
2023-02-23T13:00:50.385Z,11.77
2023-02-23T13:03:50.310Z,11.70
2023-02-23T13:06:35.339Z,11.93
2023-02-23T13:09:30.446Z,12.48
2023-02-23T13:12:14.879Z,13.30
2023-02-23T13:15:21.091Z,14.40
2023-02-23T13:18:11.452Z,13.35
2023-02-23T13:20:52.949Z,13.32
2023-02-23T13:23:53.562Z,14.90
2023-02-23T13:26:44.359Z,14.30
2023-02-23T13:29:40.315Z,15.40
2023-02-23T13:32:29.199Z,13.95
2023-02-23T13:35:21.942Z,14.35
2023-02-23T13:38:32.119Z,15.80
2023-02-23T13:41:17.907Z,14.48
2023-02-23T13:43:59.198Z,14.57
2023-02-23T13:46:45.940Z,15.95
2023-02-23T13:49:47.064Z,15.68
2023-02-23T13:52:41.153Z,16.80
2023-02-23T13:55:50.110Z,15.93
2023-02-23T13:58:29.213Z,16.17
2023-02-23T14:01:14.266Z,16.38
2023-02-23T14:03:52.544Z,16.33
2023-02-23T14:06:22.675Z,15.98
2023-02-23T14:09:08.928Z,16.98
2023-02-23T14:11:46.014Z,15.82
2023-02-23T14:14:33.311Z,16.15
2023-02-23T14:17:17.357Z,15.65
2023-02-23T14:20:13.272Z,15.20
2023-02-23T14:23:20.182Z,16.73
2023-02-23T14:26:08.459Z,17.05
2023-02-23T14:28:46.053Z,16.05
2023-02-23T14:31:12.988Z,16.70
2023-02-23T14:33:42.628Z,17.42
2023-02-23T14:36:21.770Z,17.63
2023-02-23T14:38:57.673Z,16.83
2023-02-23T14:41:58.751Z,18.10
2023-02-23T14:44:42.235Z,18.30
2023-02-23T14:47:15.303Z,17.33
2023-02-23T14:49:48.035Z,19.15
2023-02-23T14:52:27.228Z,18.80
2023-02-23T14:55:20.962Z,17.83
2023-02-23T14:57:49.433Z,17.65
2023-02-23T15:00:38.839Z,18.20
2023-02-23T15:03:12.054Z,19.67
2023-02-23T15:06:07.063Z,17.55
2023-02-23T15:08:44.638Z,19.85
2023-02-23T15:11:14.777Z,18.95
2023-02-23T15:13:49.917Z,17.95
2023-02-23T15:16:28.741Z,18.13
2023-02-23T15:19:33.647Z,17.83
2023-02-23T15:22:04.481Z,18.20
2023-02-23T15:24:43.114Z,16.35
2023-02-23T15:27:25.637Z,17.88
2023-02-23T15:29:55.506Z,18.52
2023-02-23T15:32:25.965Z,17.08
2023-02-23T15:34:55.964Z,17.00
2023-02-23T15:37:35.905Z,16.65
2023-02-23T15:40:14.931Z,17.58
2023-02-23T15:42:47.099Z,17.42
2023-02-23T15:45:37.598Z,16.50
2023-02-23T15:48:11.328Z,15.27
2023-02-23T15:50:50.128Z,14.75
2023-02-23T15:53:35.864Z,14.20
2023-02-23T15:56:16.056Z,14.15
2023-02-23T15:58:57.035Z,13.35
2023-02-23T16:01:31.097Z,13.52
2023-02-23T16:04:13.391Z,13.43
2023-02-23T16:07:16.272Z,12.75
2023-02-23T16:10:18.930Z,11.35
2023-02-23T16:12:51.130Z,11.23
2023-02-23T16:15:33.150Z,10.93
2023-02-23T16:18:09.992Z,10.93
2023-02-23T16:20:42.834Z,11.77
2023-02-23T16:23:34.206Z,11.40
2023-02-23T16:26:12.425Z,10.70
2023-02-23T16:28:46.288Z,10.35
2023-02-23T16:31:22.888Z,9.65
2023-02-23T16:33:59.812Z,10.32
2023-02-23T16:36:39.694Z,10.60
2023-02-23T16:39:18.377Z,9.18
2023-02-23T16:41:47.430Z,9.23
2023-02-23T16:44:21.722Z,8.65
2023-02-23T16:47:16.311Z,8.48
2023-02-23T16:49:43.205Z,8.68
2023-02-23T16:52:23.735Z,8.90
2023-02-23T16:54:53.855Z,8.38
2023-02-23T16:57:28.872Z,8.07
2023-02-23T16:59:57.476Z,8.93
2023-02-23T17:02:24.777Z,7.70
2023-02-23T17:04:58.960Z,7.43
2023-02-23T17:07:25.924Z,7.32
2023-02-23T17:09:52.821Z,8.48
2023-02-23T17:12:21.580Z,7.82
2023-02-23T17:14:49.688Z,7.93
2023-02-23T17:17:19.255Z,9.13
2023-02-23T17:19:46.946Z,9.75
2023-02-23T17:22:14.669Z,9.27
2023-02-23T17:24:44.948Z,9.27
2023-02-23T17:27:13.529Z,10.25
2023-02-23T17:29:41.550Z,9.82
2023-02-23T17:32:08.739Z,9.80
2023-02-23T17:34:36.136Z,9.82
2023-02-23T17:37:03.992Z,10.40
2023-02-23T17:39:32.383Z,19.90
2023-02-23T17:41:59.448Z,10.60
2023-02-23T17:44:26.619Z,11.60
2023-02-23T17:46:53.624Z,11.18
2023-02-23T17:49:20.658Z,11.05
2023-02-23T17:51:47.802Z,10.43
2023-02-23T17:54:15.303Z,9.80
2023-02-23T17:56:43.546Z,11.30
2023-02-23T17:59:10.587Z,10.88
2023-02-23T18:01:37.765Z,10.55
2023-02-23T18:04:04.912Z,12.00
2023-02-23T18:06:32.007Z,12.85
2023-02-23T18:09:01.063Z,11.63
2023-02-23T18:11:28.315Z,12.45
2023-02-23T18:13:55.334Z,11.23
2023-02-23T18:16:24.302Z,12.10
2023-02-23T18:18:51.416Z,12.70
2023-02-23T18:21:22.038Z,11.27
2023-02-23T18:23:51.172Z,11.85
2023-02-23T18:26:22.939Z,13.23
2023-02-23T18:28:51.087Z,11.75
2023-02-23T18:31:22.812Z,11.98
2023-02-23T18:33:52.856Z,11.60
2023-02-23T18:36:35.319Z,12.80
2023-02-23T18:39:06.112Z,15.95
2023-02-23T18:41:33.796Z,16.15
2023-02-23T18:44:04.724Z,12.45
2023-02-23T18:46:32.185Z,11.93
2023-02-23T18:48:59.777Z,13.40
2023-02-23T18:51:26.925Z,11.65
2023-02-23T18:53:54.518Z,11.73
2023-02-23T18:56:27.249Z,12.45
2023-02-23T18:58:59.081Z,12.20
2023-02-23T19:01:30.182Z,15.05
2023-02-23T19:04:01.146Z,11.10
2023-02-23T19:06:29.697Z,10.82
2023-02-23T19:08:59.862Z,10.98
2023-02-23T19:11:31.023Z,10.65
2023-02-23T19:14:03.561Z,10.45
2023-02-23T19:16:32.535Z,11.90
2023-02-23T19:19:01.013Z,10.77
2023-02-23T19:21:28.658Z,10.25
2023-02-23T19:23:57.726Z,10.65
2023-02-23T19:26:26.679Z,10.52
2023-02-23T19:28:53.974Z,10.85
2023-02-23T19:31:25.816Z,11.23
2023-02-23T19:33:56.506Z,10.65
2023-02-23T19:36:30.634Z,10.25
2023-02-23T19:39:11.079Z,10.00
2023-02-23T19:41:40.261Z,10.13
2023-02-23T19:44:08.580Z,10.07
2023-02-23T19:46:37.702Z,10.30
2023-02-23T19:49:05.225Z,11.80
2023-02-23T19:51:32.811Z,10.65
2023-02-23T19:54:00.169Z,11.80
2023-02-23T19:56:28.484Z,11.65
2023-02-23T19:59:01.015Z,10.35
2023-02-23T20:01:31.942Z,10.15
2023-02-23T20:04:06.637Z,10.07
2023-02-23T20:06:40.915Z,10.88
2023-02-23T20:09:09.160Z,9.73
2023-02-23T20:11:36.399Z,10.52
2023-02-23T20:14:05.168Z,9.60
2023-02-23T20:16:34.021Z,7.07
2023-02-23T20:19:01.629Z,4.90
2023-02-23T20:21:30.823Z,4.60
2023-02-23T20:23:59.572Z,4.60
2023-02-23T20:26:34.065Z,5.70
2023-02-23T20:29:02.961Z,4.60
2023-02-23T20:31:35.021Z,5.57
2023-02-23T20:34:06.694Z,5.47
2023-02-23T20:36:34.341Z,5.43
2023-02-23T20:39:01.619Z,4.70
2023-02-23T20:41:29.775Z,4.57
2023-02-23T20:43:57.710Z,4.82
2023-02-23T20:46:24.732Z,4.70
2023-02-23T20:48:51.713Z,4.68
2023-02-23T20:51:20.532Z,5.32
2023-02-23T20:53:48.745Z,5.88
2023-02-23T20:56:18.824Z,5.72
2023-02-23T20:58:46.528Z,5.78
2023-02-23T21:01:20.784Z,4.97
2023-02-23T21:03:51.535Z,4.25
2023-02-23T21:06:21.216Z,4.63
2023-02-23T21:08:49.800Z,4.82
2023-02-23T21:11:20.181Z,4.35
2023-02-23T21:13:47.838Z,4.05
2023-02-23T21:16:18.065Z,4.30
2023-02-23T21:18:46.109Z,4.10
2023-02-23T21:21:15.767Z,4.13
2023-02-23T21:23:43.855Z,4.13
2023-02-23T21:26:14.902Z,4.65
2023-02-23T21:28:45.371Z,3.88
2023-02-23T21:31:16.307Z,4.50
2023-02-23T21:33:45.257Z,4.15
2023-02-23T21:36:13.889Z,4.45
2023-02-23T21:38:43.878Z,4.47
2023-02-23T21:41:14.270Z,4.22
2023-02-23T21:43:47.026Z,4.50
2023-02-23T21:46:17.166Z,4.03
2023-02-23T21:48:45.431Z,4.25
2023-02-23T21:51:17.190Z,4.07
2023-02-23T21:53:47.311Z,4.00
2023-02-23T21:56:21.481Z,3.55
2023-02-23T21:58:53.408Z,3.88
2023-02-23T22:01:29.522Z,4.10
2023-02-23T22:03:59.244Z,3.58
2023-02-23T22:06:36.574Z,3.53
2023-02-23T22:09:07.585Z,3.83
2023-02-23T22:11:36.295Z,3.85
2023-02-23T22:14:10.865Z,3.60
2023-02-23T22:16:42.503Z,3.30
2023-02-23T22:19:14.432Z,4.00
2023-02-23T22:21:45.979Z,4.95
2023-02-23T22:24:19.442Z,4.05
2023-02-23T22:26:56.334Z,4.25
2023-02-23T22:29:28.340Z,3.97
2023-02-23T22:31:56.887Z,3.72
2023-02-23T22:34:25.157Z,3.03
2023-02-23T22:36:53.342Z,4.22
2023-02-23T22:39:21.451Z,4.55
2023-02-23T22:41:54.292Z,3.80
2023-02-23T22:44:26.858Z,3.90
2023-02-23T22:47:00.018Z,3.85
2023-02-23T22:49:30.661Z,3.40
2023-02-23T22:52:00.783Z,3.30
2023-02-23T22:54:32.055Z,4.35
2023-02-23T22:57:03.259Z,3.90
2023-02-23T22:59:33.623Z,4.45
2023-02-23T23:02:02.483Z,3.40
2023-02-23T23:04:35.104Z,4.28
2023-02-23T23:07:02.436Z,3.88
2023-02-23T23:09:34.204Z,4.22
2023-02-23T23:12:03.222Z,3.58
2023-02-23T23:14:33.672Z,3.78
2023-02-23T23:17:01.511Z,4.00
2023-02-23T23:19:42.319Z,4.32
2023-02-23T23:22:14.594Z,3.78
2023-02-23T23:24:46.197Z,3.70
2023-02-23T23:27:16.435Z,3.90
2023-02-23T23:29:50.224Z,3.88
2023-02-23T23:32:28.113Z,4.22
2023-02-23T23:35:01.236Z,3.53
2023-02-23T23:37:32.478Z,3.47
2023-02-23T23:40:13.875Z,3.50
2023-02-23T23:42:46.740Z,3.88
2023-02-23T23:45:20.217Z,3.20
2023-02-23T23:47:51.545Z,3.17
2023-02-23T23:50:27.337Z,3.80
2023-02-23T23:52:58.056Z,3.83
2023-02-23T23:55:32.032Z,3.00
2023-02-23T23:58:04.174Z,2.87
